Volga-4011 — UBNJ — position and weather

sailwx.info

Track history (hours):
 
Tides and Currents Weather Stations Pressure Air Temp Water Temp Dewpoint Dewpoint Depression Visibility Wind Speed Wind Dir Waves Ship Positions

Volga-4011

Last reported at 2016-Jun-21 17:30 UTC. Time now 2016-Jun-29 09:20 UTC.
Position N 31°06' E 121°59'.

Length 140 m; draft 3.6 m.

Type: Cargo ship. MMSI: 273358200.

Date/timePositionNaut miles runAvg speedWind from/ knotsBaromVisibWave heightAir tempDewpointWater temp
2016-Jun-21 17:30N 31°06' E 121°59'8 7.5
2016-Jun-21 16:29N 31°10' E 121°51'6 6.0
2016-Jun-21 15:33N 31°14' E 121°47'6 6.1
2016-Jun-21 14:33N 31°19' E 121°42'9 8.5
2016-Jun-21 13:31N 31°24' E 121°34'1010.4
2016-Jun-21 12:33N 31°30' E 121°25'1010.1
2016-Jun-21 11:33N 31°37' E 121°16'8 6.6
2016-Jun-21 10:23N 31°42' E 121°09'0 0.0
2016-Jun-21 09:33N 31°42' E 121°09'0 0.0
2016-Jun-21 07:28N 31°42' E 121°09'0 0.0
2016-Jun-21 04:33N 31°42' E 121°09'0 0.0
2016-Jun-21 03:31N 31°42' E 121°09'0 0.0
2016-Jun-21 02:17N 31°42' E 121°09'0 0.0
2016-Jun-20 11:30N 31°42' E 121°09'4 3.5
2016-Jun-20 10:25N 31°40' E 121°13'2 0.8
2016-Jun-20 08:33N 31°40' E 121°15'0 0.1
2016-Jun-20 07:30N 31°40' E 121°15'0 0.1
2016-Jun-20 06:28N 31°40' E 121°15'0 0.1
2016-Jun-20 05:29N 31°40' E 121°14'0 0.0
2016-Jun-20 04:32N 31°40' E 121°14'0 0.0
2016-Jun-20 03:33N 31°40' E 121°14'0 0.1
2016-Jun-20 02:33N 31°40' E 121°15'0 0.0
2016-Jun-20 01:28N 31°40' E 121°15'0 0.0
2016-Jun-19 01:32N 31°40' E 121°15'0 0.0
2016-Jun-19 00:32N 31°40' E 121°15'0 0.0
2016-Jun-18 23:33N 31°40' E 121°15'0 0.0
2016-Jun-18 22:28N 31°40' E 121°15'0 0.0
2016-Jun-18 21:31N 31°40' E 121°15'0 0.0
2016-Jun-18 20:29N 31°40' E 121°15'0 0.0
2016-Jun-18 19:30N 31°40' E 121°15'0 0.1
2016-Jun-18 18:33N 31°40' E 121°15'0 0.1
2016-Jun-18 17:28N 31°40' E 121°14'0 0.0
2016-Jun-18 16:32N 31°40' E 121°14'0 0.0
2016-Jun-18 15:32N 31°40' E 121°14'0 0.0
2016-Jun-18 14:33N 31°40' E 121°14'0 0.0
2016-Jun-18 13:31N 31°40' E 121°14'0 0.1
2016-Jun-18 12:31N 31°40' E 121°15'0 0.0
2016-Jun-18 11:32N 31°40' E 121°15'0 0.0
2016-Jun-18 10:33N 31°40' E 121°15'0 0.0
2016-Jun-18 09:33N 31°40' E 121°15'0 0.0
2016-Jun-18 08:28N 31°40' E 121°15'0 0.0
2016-Jun-18 07:32N 31°40' E 121°15'0 0.0
2016-Jun-18 06:32N 31°40' E 121°15'0 0.1
2016-Jun-18 05:33N 31°40' E 121°14'0 0.0
2016-Jun-18 04:28N 31°40' E 121°14'0 0.0
2016-Jun-18 03:31N 31°40' E 121°14'0 0.0
2016-Jun-18 02:32N 31°40' E 121°14'0 0.1
2016-Jun-18 01:30N 31°40' E 121°15'0 0.1
2016-Jun-18 00:33N 31°40' E 121°15'0 0.0
2016-Jun-17 23:31N 31°40' E 121°15'0 0.0
2016-Jun-17 22:31N 31°40' E 121°15'0 0.0
2016-Jun-17 21:32N 31°40' E 121°15'0 0.0
2016-Jun-17 20:33N 31°40' E 121°15'0 0.0
2016-Jun-17 19:27N 31°40' E 121°15'0 0.1
2016-Jun-17 18:28N 31°40' E 121°15'0 0.2
2016-Jun-17 17:29N 31°40' E 121°14'0 0.0
2016-Jun-17 16:32N 31°40' E 121°14'0 0.0
2016-Jun-17 15:33N 31°40' E 121°14'0 0.0
2016-Jun-17 14:31N 31°40' E 121°14'0 0.0
2016-Jun-17 13:31N 31°40' E 121°14'0 0.0
2016-Jun-17 12:26N 31°40' E 121°14'0 0.2
2016-Jun-17 11:33N 31°40' E 121°15'0 0.0
2016-Jun-17 10:33N 31°40' E 121°15'0 0.0
2016-Jun-17 09:31N 31°40' E 121°15'0 0.0
2016-Jun-17 08:29N 31°40' E 121°15'0 0.0
2016-Jun-17 07:32N 31°40' E 121°15'0 0.3
2016-Jun-17 06:33N 31°39' E 121°14'5 5.0
2016-Jun-17 05:31N 31°42' E 121°09'0 0.0
2016-Jun-17 04:29N 31°42' E 121°09'0 0.0
2016-Jun-17 03:33N 31°42' E 121°09'0 0.0
2016-Jun-17 00:23N 31°42' E 121°09'0 0.0
2016-Jun-16 22:18N 31°42' E 121°09'0 0.0
2016-Jun-16 21:31N 31°42' E 121°09'0 0.0
2016-Jun-16 20:28N 31°42' E 121°09'0 0.0
2016-Jun-16 19:29N 31°42' E 121°09'0 0.0
2016-Jun-16 18:30N 31°42' E 121°09'0 0.0
2016-Jun-16 16:28N 31°42' E 121°09'0 0.0
2016-Jun-16 15:29N 31°42' E 121°09'0 0.0
2016-Jun-16 14:29N 31°42' E 121°09'0 0.0
2016-Jun-16 13:27N 31°42' E 121°09'0 0.0
2016-Jun-16 12:19N 31°42' E 121°09'0 0.0
2016-Jun-16 11:31N 31°42' E 121°09'0 0.0
2016-Jun-16 10:20N 31°42' E 121°09'0 0.0
2016-Jun-16 09:32N 31°42' E 121°09'1 0.8
2016-Jun-16 08:33N 31°41' E 121°10'5 4.8
2016-Jun-16 07:31N 31°39' E 121°15'0 0.3
2016-Jun-16 06:32N 31°39' E 121°15'0 0.0
2016-Jun-16 05:33N 31°39' E 121°15'0 0.0
2016-Jun-16 04:33N 31°39' E 121°15'0 0.1
2016-Jun-16 03:31N 31°39' E 121°15'0 0.0
2016-Jun-16 02:29N 31°39' E 121°15'0 0.0
2016-Jun-16 01:29N 31°39' E 121°15'0 0.1
2016-Jun-16 00:33N 31°39' E 121°15'0 0.0
2016-Jun-15 23:31N 31°39' E 121°15'0 0.0
2016-Jun-15 22:31N 31°39' E 121°15'0 0.0
2016-Jun-15 21:32N 31°39' E 121°15'0 0.0
2016-Jun-15 20:33N 31°39' E 121°15'0 0.0
2016-Jun-15 19:33N 31°39' E 121°15'0 0.0
2016-Jun-15 18:28N 31°39' E 121°15'0 0.0
2016-Jun-15 17:26N 31°39' E 121°15'0 0.0
2016-Jun-15 16:32N 31°39' E 121°15'0 0.1
2016-Jun-15 15:33N 31°39' E 121°15'0 0.0
2016-Jun-15 14:30N 31°39' E 121°15'0 0.1
2016-Jun-15 13:31N 31°39' E 121°15'0 0.0
2016-Jun-15 12:32N 31°39' E 121°15'0 0.0
2016-Jun-15 11:33N 31°39' E 121°15'0 0.1
2016-Jun-15 10:33N 31°39' E 121°15'0 0.1
2016-Jun-15 09:31N 31°39' E 121°15'0 0.0
2016-Jun-15 08:31N 31°39' E 121°15'0 0.0
2016-Jun-15 07:29N 31°39' E 121°15'0 0.0
2016-Jun-15 06:30N 31°39' E 121°15'0 0.0
2016-Jun-15 05:33N 31°39' E 121°15'0 0.0
2016-Jun-15 04:31N 31°39' E 121°15'0 0.1
2016-Jun-15 03:32N 31°39' E 121°15'0 0.0
2016-Jun-15 02:32N 31°39' E 121°15'0 0.1
2016-Jun-15 01:30N 31°39' E 121°15'0 0.0
2016-Jun-15 00:33N 31°39' E 121°15'0 0.1
2016-Jun-14 23:28N 31°39' E 121°15'0 0.0
2016-Jun-14 22:28N 31°39' E 121°15'0 0.1
2016-Jun-14 21:32N 31°39' E 121°15'0 0.0
2016-Jun-14 20:33N 31°39' E 121°15'0 0.0
2016-Jun-14 19:33N 31°39' E 121°15'0 0.0
2016-Jun-14 18:28N 31°39' E 121°15'0 0.0
2016-Jun-14 17:29N 31°39' E 121°15'0 0.1
2016-Jun-14 16:32N 31°39' E 121°15'0 0.1
2016-Jun-14 15:30N 31°39' E 121°15'0 0.1
2016-Jun-14 14:31N 31°39' E 121°15'0 0.0
2016-Jun-14 13:25N 31°39' E 121°15'0 0.0
2016-Jun-14 12:32N 31°39' E 121°15'0 0.0
2016-Jun-14 11:32N 31°39' E 121°15'0 0.0
2016-Jun-14 10:33N 31°39' E 121°15'0 0.1
2016-Jun-14 09:25N 31°39' E 121°15'0 0.0
2016-Jun-14 08:29N 31°39' E 121°15'0 0.1
2016-Jun-14 07:29N 31°39' E 121°15'0 0.0
2016-Jun-14 06:33N 31°39' E 121°15'0 0.0
2016-Jun-14 04:31N 31°39' E 121°15'0 0.0
2016-Jun-14 03:32N 31°39' E 121°15'0 0.1
2016-Jun-14 02:32N 31°39' E 121°15'0 0.1
2016-Jun-14 01:33N 31°39' E 121°15'0 0.1
2016-Jun-14 00:28N 31°39' E 121°15'0 0.0
2016-Jun-13 23:28N 31°39' E 121°15'0 0.1
2016-Jun-13 22:23N 31°39' E 121°15'0 0.0
2016-Jun-13 21:30N 31°39' E 121°15'0 0.1
2016-Jun-13 20:33N 31°39' E 121°15'0 0.0
2016-Jun-13 19:31N 31°39' E 121°15'0 0.0
2016-Jun-13 18:32N 31°39' E 121°15'0 0.0
2016-Jun-13 17:26N 31°39' E 121°15'0 0.1
2016-Jun-13 16:27N 31°39' E 121°15'0 0.1
2016-Jun-13 15:31N 31°39' E 121°15'0 0.0
2016-Jun-13 14:31N 31°39' E 121°15'0 0.1
2016-Jun-13 13:29N 31°39' E 121°15'0 0.0
2016-Jun-13 12:24N 31°39' E 121°15'1 0.8
2016-Jun-13 11:33N 31°39' E 121°15'8 8.1
2016-Jun-13 10:33N 31°32' E 121°21'9 9.0
2016-Jun-13 09:33N 31°26' E 121°29'8 8.5
2016-Jun-13 08:33N 31°22' E 121°38'9 8.9
2016-Jun-13 07:29N 31°16' E 121°46'8 8.3
2016-Jun-13 06:29N 31°10' E 121°53'  
Track history (hours):
 
Tides and Currents Weather Stations Pressure Air Temp Water Temp Dewpoint Dewpoint Depression Visibility Wind Speed Wind Dir Waves Ship Positions

Volga-4011

Last reported at 2016-Jun-21 17:30 UTC. Time now 2016-Jun-29 09:20 UTC.
Position N 31°06' E 121°59'.

Length 140 m; draft 3.6 m.

Type: Cargo ship. MMSI: 273358200.

Date/timePositionNaut miles runAvg speedWind from/ knotsBaromVisibWave heightAir tempDewpointWater temp
2016-Jun-21 17:30N 31°06' E 121°59'8 7.5
2016-Jun-21 16:29N 31°10' E 121°51'6 6.0
2016-Jun-21 15:33N 31°14' E 121°47'6 6.1
2016-Jun-21 14:33N 31°19' E 121°42'9 8.5
2016-Jun-21 13:31N 31°24' E 121°34'1010.4
2016-Jun-21 12:33N 31°30' E 121°25'1010.1
2016-Jun-21 11:33N 31°37' E 121°16'8 6.6
2016-Jun-21 10:23N 31°42' E 121°09'0 0.0
2016-Jun-21 09:33N 31°42' E 121°09'0 0.0
2016-Jun-21 07:28N 31°42' E 121°09'0 0.0
2016-Jun-21 04:33N 31°42' E 121°09'0 0.0
2016-Jun-21 03:31N 31°42' E 121°09'0 0.0
2016-Jun-21 02:17N 31°42' E 121°09'0 0.0
2016-Jun-20 11:30N 31°42' E 121°09'4 3.5
2016-Jun-20 10:25N 31°40' E 121°13'2 0.8
2016-Jun-20 08:33N 31°40' E 121°15'0 0.1
2016-Jun-20 07:30N 31°40' E 121°15'0 0.1
2016-Jun-20 06:28N 31°40' E 121°15'0 0.1
2016-Jun-20 05:29N 31°40' E 121°14'0 0.0
2016-Jun-20 04:32N 31°40' E 121°14'0 0.0
2016-Jun-20 03:33N 31°40' E 121°14'0 0.1
2016-Jun-20 02:33N 31°40' E 121°15'0 0.0
2016-Jun-20 01:28N 31°40' E 121°15'0 0.0
2016-Jun-19 01:32N 31°40' E 121°15'0 0.0
2016-Jun-19 00:32N 31°40' E 121°15'0 0.0
2016-Jun-18 23:33N 31°40' E 121°15'0 0.0
2016-Jun-18 22:28N 31°40' E 121°15'0 0.0
2016-Jun-18 21:31N 31°40' E 121°15'0 0.0
2016-Jun-18 20:29N 31°40' E 121°15'0 0.0
2016-Jun-18 19:30N 31°40' E 121°15'0 0.1
2016-Jun-18 18:33N 31°40' E 121°15'0 0.1
2016-Jun-18 17:28N 31°40' E 121°14'0 0.0
2016-Jun-18 16:32N 31°40' E 121°14'0 0.0
2016-Jun-18 15:32N 31°40' E 121°14'0 0.0
2016-Jun-18 14:33N 31°40' E 121°14'0 0.0
2016-Jun-18 13:31N 31°40' E 121°14'0 0.1
2016-Jun-18 12:31N 31°40' E 121°15'0 0.0
2016-Jun-18 11:32N 31°40' E 121°15'0 0.0
2016-Jun-18 10:33N 31°40' E 121°15'0 0.0
2016-Jun-18 09:33N 31°40' E 121°15'0 0.0
2016-Jun-18 08:28N 31°40' E 121°15'0 0.0
2016-Jun-18 07:32N 31°40' E 121°15'0 0.0
2016-Jun-18 06:32N 31°40' E 121°15'0 0.1
2016-Jun-18 05:33N 31°40' E 121°14'0 0.0
2016-Jun-18 04:28N 31°40' E 121°14'0 0.0
2016-Jun-18 03:31N 31°40' E 121°14'0 0.0
2016-Jun-18 02:32N 31°40' E 121°14'0 0.1
2016-Jun-18 01:30N 31°40' E 121°15'0 0.1
2016-Jun-18 00:33N 31°40' E 121°15'0 0.0
2016-Jun-17 23:31N 31°40' E 121°15'0 0.0
2016-Jun-17 22:31N 31°40' E 121°15'0 0.0
2016-Jun-17 21:32N 31°40' E 121°15'0 0.0
2016-Jun-17 20:33N 31°40' E 121°15'0 0.0
2016-Jun-17 19:27N 31°40' E 121°15'0 0.1
2016-Jun-17 18:28N 31°40' E 121°15'0 0.2
2016-Jun-17 17:29N 31°40' E 121°14'0 0.0
2016-Jun-17 16:32N 31°40' E 121°14'0 0.0
2016-Jun-17 15:33N 31°40' E 121°14'0 0.0
2016-Jun-17 14:31N 31°40' E 121°14'0 0.0
2016-Jun-17 13:31N 31°40' E 121°14'0 0.0
2016-Jun-17 12:26N 31°40' E 121°14'0 0.2
2016-Jun-17 11:33N 31°40' E 121°15'0 0.0
2016-Jun-17 10:33N 31°40' E 121°15'0 0.0
2016-Jun-17 09:31N 31°40' E 121°15'0 0.0
2016-Jun-17 08:29N 31°40' E 121°15'0 0.0
2016-Jun-17 07:32N 31°40' E 121°15'0 0.3
2016-Jun-17 06:33N 31°39' E 121°14'5 5.0
2016-Jun-17 05:31N 31°42' E 121°09'0 0.0
2016-Jun-17 04:29N 31°42' E 121°09'0 0.0
2016-Jun-17 03:33N 31°42' E 121°09'0 0.0
2016-Jun-17 00:23N 31°42' E 121°09'0 0.0
2016-Jun-16 22:18N 31°42' E 121°09'0 0.0
2016-Jun-16 21:31N 31°42' E 121°09'0 0.0
2016-Jun-16 20:28N 31°42' E 121°09'0 0.0
2016-Jun-16 19:29N 31°42' E 121°09'0 0.0
2016-Jun-16 18:30N 31°42' E 121°09'0 0.0
2016-Jun-16 16:28N 31°42' E 121°09'0 0.0
2016-Jun-16 15:29N 31°42' E 121°09'0 0.0
2016-Jun-16 14:29N 31°42' E 121°09'0 0.0
2016-Jun-16 13:27N 31°42' E 121°09'0 0.0
2016-Jun-16 12:19N 31°42' E 121°09'0 0.0
2016-Jun-16 11:31N 31°42' E 121°09'0 0.0
2016-Jun-16 10:20N 31°42' E 121°09'0 0.0
2016-Jun-16 09:32N 31°42' E 121°09'1 0.8
2016-Jun-16 08:33N 31°41' E 121°10'5 4.8
2016-Jun-16 07:31N 31°39' E 121°15'0 0.3
2016-Jun-16 06:32N 31°39' E 121°15'0 0.0
2016-Jun-16 05:33N 31°39' E 121°15'0 0.0
2016-Jun-16 04:33N 31°39' E 121°15'0 0.1
2016-Jun-16 03:31N 31°39' E 121°15'0 0.0
2016-Jun-16 02:29N 31°39' E 121°15'0 0.0
2016-Jun-16 01:29N 31°39' E 121°15'0 0.1
2016-Jun-16 00:33N 31°39' E 121°15'0 0.0
2016-Jun-15 23:31N 31°39' E 121°15'0 0.0
2016-Jun-15 22:31N 31°39' E 121°15'0 0.0
2016-Jun-15 21:32N 31°39' E 121°15'0 0.0
2016-Jun-15 20:33N 31°39' E 121°15'0 0.0
2016-Jun-15 19:33N 31°39' E 121°15'0 0.0
2016-Jun-15 18:28N 31°39' E 121°15'0 0.0
2016-Jun-15 17:26N 31°39' E 121°15'0 0.0
2016-Jun-15 16:32N 31°39' E 121°15'0 0.1
2016-Jun-15 15:33N 31°39' E 121°15'0 0.0
2016-Jun-15 14:30N 31°39' E 121°15'0 0.1
2016-Jun-15 13:31N 31°39' E 121°15'0 0.0
2016-Jun-15 12:32N 31°39' E 121°15'0 0.0
2016-Jun-15 11:33N 31°39' E 121°15'0 0.1
2016-Jun-15 10:33N 31°39' E 121°15'0 0.1
2016-Jun-15 09:31N 31°39' E 121°15'0 0.0
2016-Jun-15 08:31N 31°39' E 121°15'0 0.0
2016-Jun-15 07:29N 31°39' E 121°15'0 0.0
2016-Jun-15 06:30N 31°39' E 121°15'0 0.0
2016-Jun-15 05:33N 31°39' E 121°15'0 0.0
2016-Jun-15 04:31N 31°39' E 121°15'0 0.1
2016-Jun-15 03:32N 31°39' E 121°15'0 0.0
2016-Jun-15 02:32N 31°39' E 121°15'0 0.1
2016-Jun-15 01:30N 31°39' E 121°15'0 0.0
2016-Jun-15 00:33N 31°39' E 121°15'0 0.1
2016-Jun-14 23:28N 31°39' E 121°15'0 0.0
2016-Jun-14 22:28N 31°39' E 121°15'0 0.1
2016-Jun-14 21:32N 31°39' E 121°15'0 0.0
2016-Jun-14 20:33N 31°39' E 121°15'0 0.0
2016-Jun-14 19:33N 31°39' E 121°15'0 0.0
2016-Jun-14 18:28N 31°39' E 121°15'0 0.0
2016-Jun-14 17:29N 31°39' E 121°15'0 0.1
2016-Jun-14 16:32N 31°39' E 121°15'0 0.1
2016-Jun-14 15:30N 31°39' E 121°15'0 0.1
2016-Jun-14 14:31N 31°39' E 121°15'0 0.0
2016-Jun-14 13:25N 31°39' E 121°15'0 0.0
2016-Jun-14 12:32N 31°39' E 121°15'0 0.0
2016-Jun-14 11:32N 31°39' E 121°15'0 0.0
2016-Jun-14 10:33N 31°39' E 121°15'0 0.1
2016-Jun-14 09:25N 31°39' E 121°15'0 0.0
2016-Jun-14 08:29N 31°39' E 121°15'0 0.1
2016-Jun-14 07:29N 31°39' E 121°15'0 0.0
2016-Jun-14 06:33N 31°39' E 121°15'0 0.0
2016-Jun-14 04:31N 31°39' E 121°15'0 0.0
2016-Jun-14 03:32N 31°39' E 121°15'0 0.1
2016-Jun-14 02:32N 31°39' E 121°15'0 0.1
2016-Jun-14 01:33N 31°39' E 121°15'0 0.1
2016-Jun-14 00:28N 31°39' E 121°15'0 0.0
2016-Jun-13 23:28N 31°39' E 121°15'0 0.1
2016-Jun-13 22:23N 31°39' E 121°15'0 0.0
2016-Jun-13 21:30N 31°39' E 121°15'0 0.1
2016-Jun-13 20:33N 31°39' E 121°15'0 0.0
2016-Jun-13 19:31N 31°39' E 121°15'0 0.0
2016-Jun-13 18:32N 31°39' E 121°15'0 0.0
2016-Jun-13 17:26N 31°39' E 121°15'0 0.1
2016-Jun-13 16:27N 31°39' E 121°15'0 0.1
2016-Jun-13 15:31N 31°39' E 121°15'0 0.0
2016-Jun-13 14:31N 31°39' E 121°15'0 0.1
2016-Jun-13 13:29N 31°39' E 121°15'0 0.0
2016-Jun-13 12:24N 31°39' E 121°15'1 0.8
2016-Jun-13 11:33N 31°39' E 121°15'8 8.1
2016-Jun-13 10:33N 31°32' E 121°21'9 9.0
2016-Jun-13 09:33N 31°26' E 121°29'8 8.5
2016-Jun-13 08:33N 31°22' E 121°38'9 8.9
2016-Jun-13 07:29N 31°16' E 121°46'8 8.3
2016-Jun-13 06:29N 31°10' E 121°53'  

Dump ship's entire track history